Time;durP1;ratioP1;P1;durP2;ratioP2;P2;SDS_P1;SDS_P2;PMS_P1;PMS_P2;Temp;Humidity;BMP_temperature;BMP_pressure;BME280_temperature;BME280_humidity;BME280_pressure;Samples;Min_cycle;Max_cycle;Signal;HPM_P1;HPM_P2
2024/01/09 00:01:22;;;;;;;0.65;0.32;;;;;;;-6.30;71.85;103264.56;5043552;28;20058;-74
2024/01/09 00:03:49;;;;;;;1.00;0.40;;;;;;;-6.31;71.65;103267.88;5045002;28;20107;-74
2024/01/09 00:06:16;;;;;;;1.10;0.32;;;;;;;-6.30;71.76;103264.56;5040640;28;20392;-75
2024/01/09 00:08:45;;;;;;;2.70;0.40;;;;;;;-6.28;71.83;103258.84;5040820;28;20099;-74
2024/01/09 00:11:13;;;;;;;1.15;0.38;;;;;;;-6.26;71.79;103252.22;5041739;28;20076;-75
2024/01/09 00:13:40;;;;;;;2.13;0.50;;;;;;;-6.25;71.75;103254.00;5039727;28;20523;-75
2024/01/09 00:16:08;;;;;;;1.25;0.93;;;;;;;-6.23;71.85;103256.69;5042229;28;20072;-75
2024/01/09 00:18:35;;;;;;;0.55;0.30;;;;;;;-6.23;71.83;103255.03;5040615;28;20046;-75
2024/01/09 00:21:02;;;;;;;0.90;0.47;;;;;;;-6.22;71.88;103254.25;5042604;28;20045;-75
2024/01/09 00:23:29;;;;;;;1.15;0.50;;;;;;;-6.18;71.86;103255.41;5045553;28;20053;-75
2024/01/09 00:25:57;;;;;;;0.70;0.40;;;;;;;-6.27;71.95;103229.16;5040787;28;20075;-78
2024/01/09 00:28:24;;;;;;;0.52;0.35;;;;;;;-6.16;72.01;103240.28;5044192;28;20091;-74
2024/01/09 00:30:51;;;;;;;1.13;0.50;;;;;;;-6.11;72.00;103241.56;5042616;28;20140;-74
2024/01/09 00:33:18;;;;;;;2.40;0.65;;;;;;;-6.11;71.76;103239.00;5039746;28;20448;-75
2024/01/09 00:35:45;;;;;;;0.75;0.30;;;;;;;-6.07;72.18;103241.94;5039625;28;20076;-75
2024/01/09 00:38:12;;;;;;;1.25;0.50;;;;;;;-6.05;71.95;103234.44;5042674;28;20092;-75
2024/01/09 00:40:40;;;;;;;0.90;0.45;;;;;;;-6.03;72.18;103240.56;5041822;28;20151;-74
2024/01/09 00:43:09;;;;;;;2.42;0.32;;;;;;;-6.01;72.19;103228.81;5045729;28;20423;-80
2024/01/09 00:45:36;;;;;;;1.52;0.40;;;;;;;-5.99;71.99;103227.28;5047692;28;20087;-80
2024/01/09 00:48:03;;;;;;;1.30;0.30;;;;;;;-5.97;72.23;103211.38;5051660;28;20476;-80
2024/01/09 00:50:30;;;;;;;1.23;0.40;;;;;;;-5.92;72.26;103219.41;5052693;28;20041;-80
2024/01/09 00:52:57;;;;;;;1.02;0.40;;;;;;;-5.90;72.19;103220.41;5053590;28;20041;-80
2024/01/09 00:55:23;;;;;;;1.30;0.50;;;;;;;-5.88;71.92;103226.53;5049248;28;20087;-81
2024/01/09 00:57:51;;;;;;;0.70;0.40;;;;;;;-5.85;72.36;103219.13;5043633;28;20076;-80
2024/01/09 01:00:20;;;;;;;2.40;0.40;;;;;;;-5.83;72.38;103225.25;5043178;28;20067;-80
2024/01/09 01:02:48;;;;;;;1.40;0.32;;;;;;;-5.80;72.28;103216.97;5045788;28;20067;-75
2024/01/09 01:05:15;;;;;;;0.47;0.30;;;;;;;-5.78;72.19;103218.91;5050418;28;20557;-80
2024/01/09 01:07:42;;;;;;;0.88;0.40;;;;;;;-5.84;72.27;103205.66;5051787;28;20052;-80
2024/01/09 01:10:11;;;;;;;0.88;0.40;;;;;;;-5.71;72.27;103221.94;5045526;28;20850;-80
2024/01/09 01:12:38;;;;;;;0.80;0.30;;;;;;;-5.69;72.37;103217.88;5050425;28;20056;-80
2024/01/09 01:15:06;;;;;;;2.88;0.40;;;;;;;-5.66;72.35;103219.00;5046497;28;20630;-80
2024/01/09 01:17:34;;;;;;;1.17;0.30;;;;;;;-5.63;72.43;103220.94;5049198;28;20053;-80
2024/01/09 01:20:02;;;;;;;1.85;0.30;;;;;;;-5.64;72.29;103207.28;5041960;28;20073;-80
2024/01/09 01:22:29;;;;;;;1.48;0.52;;;;;;;-5.58;72.45;103212.00;5042810;28;20388;-80
2024/01/09 01:24:56;;;;;;;0.90;0.65;;;;;;;-5.55;72.24;103212.25;5048039;28;20087;-80
2024/01/09 01:27:23;;;;;;;3.50;0.40;;;;;;;-5.54;72.38;103204.72;5046847;28;20075;-80
2024/01/09 01:29:50;;;;;;;1.10;0.40;;;;;;;-5.53;72.61;103200.50;5052328;28;20044;-80
2024/01/09 01:32:16;;;;;;;1.10;0.50;;;;;;;-5.48;72.44;103199.22;5041906;28;20041;-79
2024/01/09 01:34:45;;;;;;;0.85;0.30;;;;;;;-5.44;72.48;103196.16;5047156;28;20076;-80
2024/01/09 01:37:12;;;;;;;1.15;0.30;;;;;;;-5.42;72.48;103202.25;5044870;28;20076;-79
2024/01/09 01:39:39;;;;;;;0.40;0.30;;;;;;;-5.41;72.43;103201.50;5051116;28;20128;-80
2024/01/09 01:42:06;;;;;;;1.80;0.40;;;;;;;-5.37;72.83;103202.66;5049378;28;20049;-80
2024/01/09 01:44:33;;;;;;;0.80;0.45;;;;;;;-5.35;72.89;103196.91;5053069;28;20076;-80
2024/01/09 01:47:00;;;;;;;0.32;0.20;;;;;;;-5.33;72.73;103185.13;5052356;28;20455;-80
2024/01/09 01:49:27;;;;;;;0.43;0.28;;;;;;;-5.28;72.65;103187.19;5048486;28;20050;-80
2024/01/09 01:51:55;;;;;;;2.25;0.30;;;;;;;-5.30;72.71;103180.31;5041597;28;20045;-80
2024/01/09 01:54:23;;;;;;;0.55;0.40;;;;;;;-5.23;72.89;103181.69;5043044;28;20041;-81
2024/01/09 01:56:53;;;;;;;2.17;0.35;;;;;;;-5.19;72.90;103180.25;5040063;28;20056;-82
2024/01/09 01:59:22;;;;;;;1.00;0.30;;;;;;;-5.17;72.80;103176.19;5035489;28;20046;-82
2024/01/09 02:01:49;;;;;;;1.10;0.40;;;;;;;-5.15;72.63;103164.44;5037563;28;20047;-82
2024/01/09 02:04:19;;;;;;;1.10;0.28;;;;;;;-5.18;72.72;103148.88;5049767;28;20103;-81
2024/01/09 02:06:47;;;;;;;1.17;0.35;;;;;;;-5.11;72.67;103156.25;5052959;28;20087;-81
2024/01/09 02:09:16;;;;;;;1.65;0.40;;;;;;;-5.05;72.94;103156.72;5042681;28;20569;-82
2024/01/09 02:11:43;;;;;;;0.88;0.40;;;;;;;-5.03;72.76;103150.09;5049416;28;20088;-82
2024/01/09 02:14:10;;;;;;;1.25;0.38;;;;;;;-4.99;72.82;103151.22;5035993;28;20053;-74
2024/01/09 02:16:37;;;;;;;1.20;0.40;;;;;;;-5.04;72.80;103138.09;5042097;28;20095;-74
2024/01/09 02:19:04;;;;;;;1.00;0.30;;;;;;;-4.95;72.67;103149.03;5035941;28;20077;-75
2024/01/09 02:21:31;;;;;;;1.42;0.50;;;;;;;-4.92;72.82;103135.63;5042984;28;20049;-74
2024/01/09 02:23:58;;;;;;;0.98;0.45;;;;;;;-4.88;72.75;103137.63;5036246;28;20072;-75
2024/01/09 02:26:31;;;;;;;0.70;0.22;;;;;;;-4.89;73.11;103135.84;5041248;28;20091;-74
2024/01/09 02:29:10;;;;;;;0.82;0.30;;;;;;;-4.83;72.85;103138.00;5039554;28;20045;-74
2024/01/09 02:31:38;;;;;;;1.15;0.30;;;;;;;-4.81;73.05;103138.97;5042382;28;20056;-75
2024/01/09 02:34:07;;;;;;;1.63;0.50;;;;;;;-4.78;73.10;103140.13;5040071;28;20122;-74
2024/01/09 02:36:34;;;;;;;1.35;0.30;;;;;;;-4.75;73.06;103137.81;5042538;28;20507;-75
2024/01/09 02:39:01;;;;;;;0.63;0.20;;;;;;;-4.72;73.00;103132.94;5037717;28;20537;-74
2024/01/09 02:41:28;;;;;;;0.65;0.30;;;;;;;-4.70;73.50;103135.59;5042460;28;20077;-74
2024/01/09 02:43:55;;;;;;;0.70;0.28;;;;;;;-4.65;73.18;103136.84;5038943;28;20142;-75
2024/01/09 02:46:22;;;;;;;0.93;0.28;;;;;;;-4.63;73.14;103128.53;5043472;28;20586;-74
2024/01/09 02:48:50;;;;;;;2.35;0.30;;;;;;;-4.62;72.91;103124.31;5038119;28;20085;-75
2024/01/09 02:51:17;;;;;;;1.38;0.30;;;;;;;-4.57;72.93;103125.56;5039008;28;20124;-75
2024/01/09 02:53:45;;;;;;;0.68;0.30;;;;;;;-4.58;73.14;103111.03;5038203;28;20080;-75
2024/01/09 02:56:12;;;;;;;0.75;0.30;;;;;;;-4.52;73.24;103111.50;5039626;28;20073;-74
2024/01/09 02:58:39;;;;;;;2.65;0.40;;;;;;;-4.49;73.02;103111.72;5040951;28;20107;-75
2024/01/09 03:01:07;;;;;;;1.42;0.38;;;;;;;-4.48;73.28;103108.38;5039010;28;20075;-74
2024/01/09 03:03:34;;;;;;;0.70;0.30;;;;;;;-4.46;73.11;103105.94;5045395;28;20049;-81
2024/01/09 03:06:03;;;;;;;0.73;0.25;;;;;;;-4.38;73.34;103104.00;5051338;28;20076;-81
2024/01/09 03:08:30;;;;;;;0.75;0.40;;;;;;;-4.35;73.43;103106.78;5052717;28;20079;-81
2024/01/09 03:10:56;;;;;;;0.60;0.30;;;;;;;-4.32;73.35;103109.56;5048302;28;20134;-81
2024/01/09 03:13:23;;;;;;;0.57;0.20;;;;;;;-4.32;73.42;103099.34;5050707;28;20076;-81
2024/01/09 03:15:50;;;;;;;0.35;0.20;;;;;;;-4.26;73.42;103099.78;5055100;28;20041;-81
2024/01/09 03:18:17;;;;;;;0.43;0.30;;;;;;;-4.24;73.39;103103.38;5054690;28;20076;-81
2024/01/09 03:20:44;;;;;;;1.40;0.25;;;;;;;-4.21;73.75;103107.03;5057925;28;20052;-82
2024/01/09 03:23:13;;;;;;;0.60;0.20;;;;;;;-4.18;73.22;103107.25;5055242;28;20491;-75
2024/01/09 03:25:40;;;;;;;1.23;0.30;;;;;;;-4.17;72.97;103100.47;5046352;28;20088;-74
2024/01/09 03:28:07;;;;;;;0.35;0.20;;;;;;;-4.12;73.16;103101.72;5049101;28;20455;-75
2024/01/09 03:30:34;;;;;;;1.02;0.30;;;;;;;-4.08;73.37;103102.81;5043704;28;20052;-75
2024/01/09 03:33:01;;;;;;;0.70;0.20;;;;;;;-4.05;73.18;103097.94;5044079;28;20130;-74
2024/01/09 03:35:28;;;;;;;0.55;0.20;;;;;;;-4.02;73.80;103093.94;5045133;28;20124;-75
2024/01/09 03:37:55;;;;;;;0.57;0.40;;;;;;;-3.99;73.77;103095.81;5021318;28;20147;-75
2024/01/09 03:40:23;;;;;;;0.47;0.30;;;;;;;-3.98;73.20;103083.16;5048739;28;20130;-74
2024/01/09 03:42:50;;;;;;;0.68;0.20;;;;;;;-3.94;73.45;103087.72;5049123;28;20735;-74
2024/01/09 03:45:17;;;;;;;1.35;0.20;;;;;;;-3.91;73.03;103073.38;5045649;28;20041;-75
2024/01/09 03:47:44;;;;;;;2.35;0.20;;;;;;;-3.88;73.58;103079.59;5046628;28;20104;-75
2024/01/09 03:50:11;;;;;;;1.35;0.25;;;;;;;-3.85;73.89;103067.03;5047575;28;20103;-75
2024/01/09 03:52:38;;;;;;;0.75;0.30;;;;;;;-3.83;73.49;103062.03;5047080;28;20045;-75
2024/01/09 03:55:06;;;;;;;3.63;0.60;;;;;;;-3.79;73.96;103064.94;5050193;28;20561;-74
2024/01/09 03:57:34;;;;;;;0.55;0.20;;;;;;;-3.77;73.62;103057.38;5043433;28;20081;-76
2024/01/09 04:00:01;;;;;;;0.40;0.20;;;;;;;-3.73;73.48;103059.41;5045438;28;20088;-75
2024/01/09 04:02:29;;;;;;;1.08;0.30;;;;;;;-3.72;73.54;103063.72;5048698;28;20045;-75
2024/01/09 04:04:55;;;;;;;1.05;0.20;;;;;;;-3.68;74.07;103059.72;5044943;28;20046;-75
2024/01/09 04:07:22;;;;;;;0.98;0.20;;;;;;;-3.66;73.84;103050.47;5047588;28;20107;-75
2024/01/09 04:09:49;;;;;;;1.58;0.20;;;;;;;-3.64;73.55;103060.03;5046318;28;20124;-75
2024/01/09 04:12:16;;;;;;;0.98;0.20;;;;;;;-3.64;73.94;103048.94;5048535;28;20098;-74
2024/01/09 04:14:45;;;;;;;0.40;0.20;;;;;;;-3.64;73.85;103037.03;5046085;28;20053;-74
2024/01/09 04:17:12;;;;;;;0.95;0.25;;;;;;;-3.57;73.57;103046.91;5044618;28;20487;-75
2024/01/09 04:19:39;;;;;;;0.90;0.20;;;;;;;-3.54;73.30;103043.66;5044910;28;20041;-74
2024/01/09 04:22:07;;;;;;;1.92;0.30;;;;;;;-3.51;73.67;103049.88;5045390;28;20061;-75
2024/01/09 04:24:34;;;;;;;0.45;0.20;;;;;;;-3.47;74.13;103042.47;5048588;28;20095;-75
2024/01/09 04:27:03;;;;;;;0.50;0.20;;;;;;;-3.47;73.85;103043.34;5043734;28;20049;-75
2024/01/09 04:29:30;;;;;;;1.15;0.13;;;;;;;-3.47;73.85;103032.22;5042619;28;20048;-74
2024/01/09 04:31:58;;;;;;;0.40;0.20;;;;;;;-3.40;74.09;103029.28;5041824;28;20037;-75
2024/01/09 04:34:25;;;;;;;0.52;0.20;;;;;;;-3.37;73.83;103030.41;5042605;28;20079;-75
2024/01/09 04:36:52;;;;;;;1.08;0.20;;;;;;;-3.35;74.29;103013.47;5040264;28;20081;-75
2024/01/09 04:39:19;;;;;;;1.23;0.20;;;;;;;-3.33;74.11;103016.16;5040697;28;20053;-75
2024/01/09 04:41:46;;;;;;;0.50;0.20;;;;;;;-3.29;73.71;103013.03;5040581;28;20095;-76
2024/01/09 04:44:13;;;;;;;0.52;0.15;;;;;;;-3.27;74.39;103016.59;5041864;28;20083;-75
2024/01/09 04:46:40;;;;;;;0.50;0.17;;;;;;;-3.28;73.79;103004.53;5042657;28;20053;-76
2024/01/09 04:49:09;;;;;;;0.65;0.30;;;;;;;-3.22;74.44;103016.88;5043848;28;20080;-74
2024/01/09 04:51:35;;;;;;;0.30;0.13;;;;;;;-3.26;74.62;103003.88;5041510;28;20099;-75
2024/01/09 04:54:02;;;;;;;1.73;0.20;;;;;;;-3.17;74.06;103016.44;5041559;28;20076;-74
2024/01/09 04:56:29;;;;;;;0.30;0.10;;;;;;;-3.14;74.56;103010.63;5040652;28;20553;-75
2024/01/09 04:58:56;;;;;;;0.63;0.20;;;;;;;-3.12;74.17;103015.06;5042023;28;20569;-74
2024/01/09 05:01:23;;;;;;;0.30;0.20;;;;;;;-3.07;74.57;103010.28;5039036;28;20049;-75
2024/01/09 05:03:53;;;;;;;0.25;0.20;;;;;;;-3.07;74.62;103010.28;5043367;28;20671;-74
2024/01/09 05:06:21;;;;;;;0.40;0.20;;;;;;;-3.04;74.11;103011.38;5043203;28;20719;-74
2024/01/09 05:08:48;;;;;;;1.20;0.20;;;;;;;-3.00;74.79;103019.28;5039900;28;20068;-74
2024/01/09 05:11:15;;;;;;;0.40;0.20;;;;;;;-2.98;74.42;103020.28;5040100;28;20080;-74
2024/01/09 05:13:42;;;;;;;0.43;0.20;;;;;;;-2.96;74.67;103006.78;5042132;28;20124;-74
2024/01/09 05:16:09;;;;;;;0.63;0.20;;;;;;;-2.93;74.53;103013.81;5041188;28;20053;-74
2024/01/09 05:18:36;;;;;;;0.38;0.20;;;;;;;-2.92;74.33;103013.00;5044394;28;20083;-74
2024/01/09 05:21:03;;;;;;;0.75;0.20;;;;;;;-2.88;74.92;103009.84;5047341;28;20087;-74
2024/01/09 05:23:32;;;;;;;0.68;0.28;;;;;;;-2.86;74.68;103004.06;5045156;28;20523;-74
2024/01/09 05:25:59;;;;;;;0.77;0.20;;;;;;;-2.83;74.45;103017.06;5039411;28;20523;-75
2024/01/09 05:28:25;;;;;;;0.40;0.10;;;;;;;-2.82;74.33;103013.75;5041190;28;20527;-74
2024/01/09 05:30:53;;;;;;;0.85;0.20;;;;;;;-2.78;74.60;103014.81;5038364;28;20095;-76
2024/01/09 05:33:20;;;;;;;0.38;0.30;;;;;;;-2.77;74.92;103016.59;5040942;28;20124;-75
2024/01/09 05:35:47;;;;;;;0.50;0.20;;;;;;;-2.78;74.43;103004.56;5045352;28;20231;-75
2024/01/09 05:38:14;;;;;;;2.38;0.20;;;;;;;-2.73;74.44;103003.22;5044898;28;20057;-75
2024/01/09 05:40:42;;;;;;;1.25;0.15;;;;;;;-2.71;74.03;103006.75;5041642;28;20106;-75
2024/01/09 05:43:09;;;;;;;0.22;0.20;;;;;;;-2.69;74.86;103002.63;5043571;28;20516;-75
2024/01/09 05:45:36;;;;;;;0.52;0.13;;;;;;;-2.67;74.78;102997.63;5042210;28;20051;-74
2024/01/09 05:48:03;;;;;;;0.32;0.20;;;;;;;-2.67;75.28;103001.06;5044411;28;20487;-74
2024/01/09 05:50:30;;;;;;;0.43;0.20;;;;;;;-2.63;74.75;103003.03;5038822;28;20478;-75
2024/01/09 05:52:57;;;;;;;0.32;0.20;;;;;;;-2.61;74.47;103006.59;5038023;28;20049;-75
2024/01/09 05:55:24;;;;;;;0.98;0.20;;;;;;;-2.62;74.72;102999.72;5037710;28;20126;-75
2024/01/09 05:57:53;;;;;;;0.20;0.10;;;;;;;-2.55;74.32;102994.97;5040670;28;20131;-75
2024/01/09 06:00:20;;;;;;;1.27;0.13;;;;;;;-2.58;74.58;102998.22;5041816;28;20054;-74
2024/01/09 06:02:47;;;;;;;2.15;0.40;;;;;;;-2.52;75.00;103008.00;5041833;28;20573;-77
2024/01/09 06:05:14;;;;;;;0.35;0.20;;;;;;;-2.50;75.07;103006.44;5042923;28;20476;-75
2024/01/09 06:07:41;;;;;;;1.55;0.22;;;;;;;-2.48;74.77;103008.31;5042795;28;20495;-76
2024/01/09 06:10:08;;;;;;;3.10;0.20;;;;;;;-2.46;74.18;103011.84;5045240;28;20111;-76
2024/01/09 06:12:35;;;;;;;0.85;0.20;;;;;;;-2.44;74.88;103007.72;5039602;28;20745;-74
2024/01/09 06:15:04;;;;;;;0.22;0.20;;;;;;;-2.42;74.66;103011.28;5042897;28;20125;-75
2024/01/09 06:17:31;;;;;;;2.05;0.10;;;;;;;-2.39;75.16;103018.28;5043777;28;20051;-76
2024/01/09 06:20:00;;;;;;;0.25;0.10;;;;;;;-2.39;74.86;103011.47;5041361;28;20049;-76
2024/01/09 06:22:27;;;;;;;0.30;0.10;;;;;;;-2.37;75.07;103020.19;5044039;28;20466;-76
2024/01/09 06:24:54;;;;;;;0.20;0.20;;;;;;;-2.34;74.79;103014.34;5043961;28;20081;-76
2024/01/09 06:27:21;;;;;;;0.30;0.17;;;;;;;-2.33;74.44;103011.00;5038522;28;20045;-75
2024/01/09 06:29:48;;;;;;;0.52;0.10;;;;;;;-2.32;75.14;102997.38;5042004;28;20080;-76
2024/01/09 06:32:16;;;;;;;0.15;0.10;;;;;;;-2.30;74.73;102989.81;5041047;28;20100;-76
2024/01/09 06:34:43;;;;;;;0.50;0.10;;;;;;;-2.28;74.63;102996.81;5043849;28;20133;-77
2024/01/09 06:37:10;;;;;;;0.60;0.20;;;;;;;-2.27;74.41;103001.16;5038605;28;20460;-75
2024/01/09 06:39:37;;;;;;;0.25;0.10;;;;;;;-2.28;74.33;102995.91;5037466;28;20080;-75
2024/01/09 06:42:05;;;;;;;0.45;0.10;;;;;;;-2.23;74.61;103015.03;5041619;28;20813;-74
2024/01/09 06:44:32;;;;;;;0.20;0.10;;;;;;;-2.22;74.59;103004.91;5035471;28;20053;-75
2024/01/09 06:46:59;;;;;;;0.57;0.17;;;;;;;-2.21;74.76;103003.22;5036738;28;20076;-75
2024/01/09 06:49:27;;;;;;;0.40;0.10;;;;;;;-2.19;74.97;103004.22;5040689;28;20072;-74
2024/01/09 06:51:54;;;;;;;0.50;0.28;;;;;;;-2.17;74.60;103000.97;5038167;28;20060;-75
2024/01/09 06:54:21;;;;;;;0.20;0.10;;;;;;;-2.16;74.64;102995.03;5041814;28;20487;-79
2024/01/09 06:56:48;;;;;;;0.40;0.20;;;;;;;-2.16;74.42;102995.03;5046573;28;20080;-79
2024/01/09 06:59:16;;;;;;;1.08;0.30;;;;;;;-2.16;75.05;102983.91;5038920;28;20411;-79
2024/01/09 07:01:43;;;;;;;0.47;0.20;;;;;;;-2.18;75.06;102980.34;5045186;28;20052;-80
2024/01/09 07:04:09;;;;;;;1.60;0.20;;;;;;;-2.13;74.56;102990.09;5047931;28;20099;-79
2024/01/09 07:06:38;;;;;;;0.40;0.10;;;;;;;-2.13;74.82;102991.78;5046026;28;20049;-78
2024/01/09 07:09:05;;;;;;;0.25;0.10;;;;;;;-2.11;74.98;102991.88;5044366;28;20047;-79
2024/01/09 07:11:32;;;;;;;0.20;0.10;;;;;;;-2.12;74.50;102991.00;5050527;28;20049;-79
2024/01/09 07:14:00;;;;;;;0.28;0.20;;;;;;;-2.11;74.35;102990.22;5049245;28;20040;-79
2024/01/09 07:16:27;;;;;;;1.70;0.17;;;;;;;-2.20;74.65;102977.66;5042361;28;20040;-79
2024/01/09 07:18:54;;;;;;;0.20;0.20;;;;;;;-2.11;74.30;102984.19;5045666;28;20410;-79
2024/01/09 07:21:21;;;;;;;1.67;0.10;;;;;;;-2.13;74.57;102982.41;5047504;28;20048;-79
2024/01/09 07:23:49;;;;;;;0.38;0.15;;;;;;;-2.13;74.53;102992.66;5049819;28;20045;-79
2024/01/09 07:26:16;;;;;;;0.43;0.10;;;;;;;-2.14;74.93;102983.22;5045788;28;20455;-78
2024/01/09 07:28:43;;;;;;;0.28;0.10;;;;;;;-2.14;74.54;102977.16;5050743;28;20483;-78
2024/01/09 07:31:10;;;;;;;3.80;0.30;;;;;;;-2.15;74.89;102978.84;5047104;28;20530;-78
2024/01/09 07:33:37;;;;;;;1.13;0.68;;;;;;;-2.14;74.23;102983.22;5044788;28;20553;-80
2024/01/09 07:36:06;;;;;;;2.65;0.10;;;;;;;-2.15;74.12;102966.03;5043326;28;20084;-80
2024/01/09 07:38:33;;;;;;;0.17;0.10;;;;;;;-2.20;73.98;102957.16;5043725;28;20449;-80
2024/01/09 07:41:02;;;;;;;2.42;0.40;;;;;;;-2.16;74.55;102958.25;5039123;28;20480;-80
2024/01/09 07:43:29;;;;;;;0.20;0.17;;;;;;;-2.26;74.40;102946.50;5040539;28;20045;-75
2024/01/09 07:45:56;;;;;;;1.55;0.13;;;;;;;-2.18;74.39;102959.81;5038332;28;20395;-75
2024/01/09 07:48:23;;;;;;;0.30;0.10;;;;;;;-2.19;74.87;102961.50;5039594;28;20594;-75
2024/01/09 07:50:50;;;;;;;0.10;0.10;;;;;;;-2.22;73.89;102961.31;5034980;28;20115;-75
2024/01/09 07:53:17;;;;;;;0.32;0.10;;;;;;;-2.21;74.17;102968.19;5036863;28;20125;-75
2024/01/09 07:55:45;;;;;;;0.77;0.10;;;;;;;-2.21;73.77;102967.31;5036848;28;20080;-72
2024/01/09 07:58:13;;;;;;;0.52;0.20;;;;;;;-2.22;74.63;102973.25;5039669;28;20127;-74
2024/01/09 08:00:40;;;;;;;0.40;0.20;;;;;;;-2.23;74.38;102977.47;5042918;28;20076;-73
2024/01/09 08:03:07;;;;;;;2.10;0.20;;;;;;;-2.23;74.65;102966.31;5038906;28;20511;-71
2024/01/09 08:05:34;;;;;;;0.45;0.10;;;;;;;-2.24;74.50;102970.56;5042387;28;20045;-75
2024/01/09 08:08:01;;;;;;;0.47;0.20;;;;;;;-2.24;74.21;102970.56;5041064;28;20041;-74
2024/01/09 08:10:27;;;;;;;0.35;0.05;;;;;;;-2.23;74.45;102976.59;5042201;28;20049;-74
2024/01/09 08:12:54;;;;;;;0.47;0.20;;;;;;;-2.25;74.32;102979.06;5044961;28;20075;-74
2024/01/09 08:15:22;;;;;;;0.57;0.17;;;;;;;-2.25;74.69;102984.19;5041001;28;20057;-74
2024/01/09 08:17:49;;;;;;;0.22;0.17;;;;;;;-2.26;74.56;102979.84;5043169;28;20119;-75
2024/01/09 08:20:17;;;;;;;0.50;0.22;;;;;;;-2.26;74.28;102986.66;5044739;28;20077;-75
2024/01/09 08:22:44;;;;;;;2.70;0.20;;;;;;;-2.26;74.47;102982.41;5046486;28;20080;-74
2024/01/09 08:25:11;;;;;;;2.05;0.10;;;;;;;-2.26;74.32;102986.66;5047376;28;20488;-75
2024/01/09 08:27:38;;;;;;;0.17;0.10;;;;;;;-2.27;74.86;102983.19;5041730;28;20610;-75
2024/01/09 08:30:08;;;;;;;0.22;0.10;;;;;;;-2.27;74.79;102980.63;5040530;28;20381;-73
2024/01/09 08:32:38;;;;;;;0.50;0.20;;;;;;;-2.27;75.05;102974.63;5042291;28;20052;-73
2024/01/09 08:35:05;;;;;;;0.40;0.10;;;;;;;-2.28;74.13;102988.22;5038889;28;20825;-71
2024/01/09 08:37:32;;;;;;;0.20;0.13;;;;;;;-2.27;74.83;102985.75;5039600;28;20052;-72
2024/01/09 08:39:59;;;;;;;0.30;0.10;;;;;;;-2.31;74.33;102982.88;5040809;28;20129;-72
2024/01/09 08:42:26;;;;;;;0.40;0.20;;;;;;;-2.25;74.82;102983.28;5041368;28;20506;-71
2024/01/09 08:44:53;;;;;;;0.38;0.20;;;;;;;-2.28;74.80;102975.38;5041729;28;20072;-73
2024/01/09 08:47:20;;;;;;;0.30;0.10;;;;;;;-2.26;74.53;102987.53;5043259;28;20110;-73
2024/01/09 08:49:50;;;;;;;0.40;0.10;;;;;;;-2.25;74.48;102984.19;5042062;28;20470;-73
2024/01/09 08:52:24;;;;;;;0.40;0.10;;;;;;;-2.25;74.34;102981.63;5040305;28;20124;-73
2024/01/09 08:54:51;;;;;;;0.43;0.25;;;;;;;-2.26;73.85;102982.41;5038861;28;20041;-71
2024/01/09 08:57:18;;;;;;;0.75;0.13;;;;;;;-2.27;74.53;102980.63;5042885;28;20073;-71
2024/01/09 08:59:45;;;;;;;0.55;0.20;;;;;;;-2.30;74.90;102984.69;5040681;28;20072;-73
2024/01/09 09:02:12;;;;;;;0.77;0.30;;;;;;;-2.25;74.54;102989.31;5043388;28;20056;-73
2024/01/09 09:04:39;;;;;;;0.75;0.20;;;;;;;-2.24;74.23;102996.22;5043009;28;20528;-72
2024/01/09 09:07:07;;;;;;;0.50;0.20;;;;;;;-2.24;74.55;102983.41;5040459;28;20076;-72
2024/01/09 09:09:35;;;;;;;0.38;0.20;;;;;;;-2.24;73.78;102988.53;5038200;28;20100;-74
2024/01/09 09:12:02;;;;;;;0.40;0.20;;;;;;;-2.24;74.83;102985.97;5043205;28;20084;-75
2024/01/09 09:14:29;;;;;;;2.00;0.20;;;;;;;-2.27;74.26;102980.63;5043971;28;20474;-73
2024/01/09 09:16:57;;;;;;;0.43;0.20;;;;;;;-2.23;74.22;102992.84;5040822;28;20080;-71
2024/01/09 09:19:24;;;;;;;1.10;0.17;;;;;;;-2.24;74.37;102988.53;5042827;28;20486;-73
2024/01/09 09:21:52;;;;;;;0.68;0.10;;;;;;;-2.24;74.75;102991.09;5040516;28;20045;-73
2024/01/09 09:24:20;;;;;;;0.30;0.10;;;;;;;-2.21;74.38;102991.28;5039868;28;20497;-70
2024/01/09 09:26:47;;;;;;;0.75;0.35;;;;;;;-2.21;74.23;102982.72;5039894;28;20084;-73
2024/01/09 09:29:14;;;;;;;0.30;0.10;;;;;;;-2.20;74.77;102976.78;5038861;28;20149;-72
2024/01/09 09:31:56;;;;;;;0.20;0.10;;;;;;;-2.21;74.11;102969.88;5041488;28;20049;-71
2024/01/09 09:34:23;;;;;;;0.40;0.20;;;;;;;-2.20;74.49;102974.22;5037871;28;20048;-73
2024/01/09 09:36:50;;;;;;;0.52;0.10;;;;;;;-2.20;74.60;102972.53;5043402;28;20095;-73
2024/01/09 09:39:17;;;;;;;2.15;0.30;;;;;;;-2.19;74.21;102965.75;5040274;28;20142;-74
2024/01/09 09:41:51;;;;;;;0.90;0.20;;;;;;;-2.20;73.60;102962.28;5041518;28;20103;-74
2024/01/09 09:44:22;;;;;;;0.43;0.20;;;;;;;-2.19;74.45;102958.94;5039942;28;20072;-73
2024/01/09 09:46:51;;;;;;;0.57;0.10;;;;;;;-2.19;74.77;102961.50;5042667;28;20539;-72
2024/01/09 09:49:20;;;;;;;0.68;0.20;;;;;;;-2.18;74.26;102954.69;5039604;28;20132;-72
2024/01/09 09:51:49;;;;;;;0.25;0.10;;;;;;;-2.19;74.23;102948.69;5040703;28;20486;-70
2024/01/09 09:54:16;;;;;;;0.10;0.10;;;;;;;-2.18;73.94;102954.69;5038845;28;20450;-73
2024/01/09 09:56:45;;;;;;;0.20;0.10;;;;;;;-2.17;73.64;102957.38;5038555;28;20149;-73
2024/01/09 09:59:13;;;;;;;0.40;0.20;;;;;;;-2.15;74.08;102944.63;5039676;28;20077;-72
2024/01/09 10:01:41;;;;;;;0.98;0.15;;;;;;;-2.20;74.15;102931.50;5039755;28;20096;-73
2024/01/09 10:04:26;;;;;;;0.57;0.20;;;;;;;-2.14;73.79;102947.31;5046867;28;20049;-84
2024/01/09 10:06:55;;;;;;;3.92;0.20;;;;;;;-2.13;74.40;102954.19;5042594;28;20112;-79
2024/01/09 10:09:24;;;;;;;0.50;0.20;;;;;;;-2.17;74.02;102944.56;5046870;28;20045;-80
2024/01/09 10:11:52;;;;;;;0.30;0.13;;;;;;;-2.11;73.98;102951.75;5048082;28;20041;-82
2024/01/09 10:14:19;;;;;;;0.90;0.20;;;;;;;-2.11;73.87;102944.06;5046624;28;20053;-82
2024/01/09 10:16:50;;;;;;;0.50;0.10;;;;;;;-2.10;74.37;102948.38;5040426;28;20076;-78
2024/01/09 10:19:18;;;;;;;1.70;0.17;;;;;;;-2.09;74.17;102951.84;5047883;28;20053;-77
2024/01/09 10:21:45;;;;;;;0.75;0.20;;;;;;;-2.08;73.47;102940.78;5039529;28;20452;-78
2024/01/09 10:24:12;;;;;;;0.50;0.20;;;;;;;-2.07;74.10;102942.56;5045395;28;20502;-78
2024/01/09 10:26:40;;;;;;;0.65;0.20;;;;;;;-2.06;73.92;102944.31;5042140;28;20041;-77
2024/01/09 10:29:09;;;;;;;0.35;0.10;;;;;;;-2.06;74.00;102941.75;5042858;28;20143;-80
2024/01/09 10:31:37;;;;;;;0.40;0.20;;;;;;;-2.05;73.79;102928.13;5044219;28;20144;-84
2024/01/09 10:34:04;;;;;;;0.50;0.20;;;;;;;-2.05;73.44;102930.69;5038211;28;20052;-77
2024/01/09 10:36:32;;;;;;;0.90;0.30;;;;;;;-2.07;73.55;102922.03;5043240;28;20045;-78
2024/01/09 10:39:04;;;;;;;1.08;0.20;;;;;;;-2.05;73.54;102920.44;5046688;28;20064;-83
2024/01/09 10:41:33;;;;;;;0.20;0.10;;;;;;;-2.10;73.42;102903.91;5039898;28;20049;-82
2024/01/09 10:44:01;;;;;;;0.70;0.20;;;;;;;-2.02;73.69;102906.16;5047371;28;20091;-83
2024/01/09 10:46:31;;;;;;;0.20;0.10;;;;;;;-2.01;74.32;102912.16;5046869;28;20085;-83
2024/01/09 10:49:00;;;;;;;1.80;0.13;;;;;;;-2.00;73.85;102903.66;5049267;28;20418;-83
2024/01/09 10:51:28;;;;;;;0.35;0.20;;;;;;;-2.03;73.41;102903.47;5040750;28;20041;-81
2024/01/09 10:53:56;;;;;;;0.60;0.20;;;;;;;-1.99;74.06;102911.47;5048798;28;20098;-81
2024/01/09 10:56:23;;;;;;;0.50;0.10;;;;;;;-1.99;74.06;102910.59;5051606;28;20080;-81
2024/01/09 10:58:51;;;;;;;0.70;0.10;;;;;;;-1.98;73.28;102904.66;5046155;28;20041;-80
2024/01/09 11:01:18;;;;;;;1.20;0.20;;;;;;;-1.98;73.85;102897.84;5044747;28;20074;-79
2024/01/09 11:03:47;;;;;;;1.05;0.20;;;;;;;-1.96;73.17;102908.22;5040420;28;20076;-81
2024/01/09 11:06:17;;;;;;;0.20;0.15;;;;;;;-1.97;73.45;102896.16;5051292;28;20115;-80
2024/01/09 11:08:50;;;;;;;0.45;0.20;;;;;;;-1.95;73.53;102907.41;5045628;28;20059;-81
2024/01/09 11:11:18;;;;;;;0.30;0.10;;;;;;;-1.94;73.27;102901.47;5047598;28;20087;-80
2024/01/09 11:13:49;;;;;;;0.20;0.13;;;;;;;-1.92;73.61;102905.03;5045748;28;20069;-70
2024/01/09 11:16:19;;;;;;;0.50;0.20;;;;;;;-1.92;72.75;102900.78;5039088;28;20091;-69
2024/01/09 11:18:49;;;;;;;1.15;0.30;;;;;;;-1.91;73.27;102899.13;5037342;28;20380;-70
2024/01/09 11:21:18;;;;;;;0.45;0.20;;;;;;;-1.91;73.29;102896.56;5037971;28;20045;-69
2024/01/09 11:24:00;;;;;;;1.20;0.20;;;;;;;-1.89;73.12;102897.53;5040584;28;20068;-69
2024/01/09 11:26:29;;;;;;;1.08;1.00;;;;;;;-1.92;73.14;102876.81;5040354;28;20061;-70